sensor_id;sensor_type;location;lat;lon;timestamp;P1;durP1;ratioP1;P2;durP2;ratioP2
11283;SDS011;5698;47.332;11.180;2023-07-30T00:02:20;1.37;;;1.27;;
11283;SDS011;5698;47.332;11.180;2023-07-30T00:04:47;3.20;;;1.40;;
11283;SDS011;5698;47.332;11.180;2023-07-30T00:07:14;1.80;;;1.53;;
11283;SDS011;5698;47.332;11.180;2023-07-30T00:09:43;1.17;;;1.07;;
11283;SDS011;5698;47.332;11.180;2023-07-30T00:12:10;1.57;;;1.47;;
11283;SDS011;5698;47.332;11.180;2023-07-30T00:14:37;1.40;;;1.30;;
11283;SDS011;5698;47.332;11.180;2023-07-30T00:17:04;2.60;;;1.40;;
11283;SDS011;5698;47.332;11.180;2023-07-30T00:19:31;1.43;;;1.33;;
11283;SDS011;5698;47.332;11.180;2023-07-30T00:21:58;1.47;;;1.30;;
11283;SDS011;5698;47.332;11.180;2023-07-30T00:24:25;2.73;;;1.47;;
11283;SDS011;5698;47.332;11.180;2023-07-30T00:26:53;1.30;;;1.20;;
11283;SDS011;5698;47.332;11.180;2023-07-30T00:29:20;1.40;;;1.30;;
11283;SDS011;5698;47.332;11.180;2023-07-30T00:31:47;1.40;;;1.30;;
11283;SDS011;5698;47.332;11.180;2023-07-30T00:34:14;1.37;;;1.17;;
11283;SDS011;5698;47.332;11.180;2023-07-30T00:36:41;1.30;;;1.20;;
11283;SDS011;5698;47.332;11.180;2023-07-30T00:39:08;1.03;;;1.03;;
11283;SDS011;5698;47.332;11.180;2023-07-30T00:41:37;2.77;;;1.37;;
11283;SDS011;5698;47.332;11.180;2023-07-30T00:44:05;1.67;;;1.30;;
11283;SDS011;5698;47.332;11.180;2023-07-30T00:46:32;3.00;;;1.23;;
11283;SDS011;5698;47.332;11.180;2023-07-30T00:48:59;2.23;;;1.27;;
11283;SDS011;5698;47.332;11.180;2023-07-30T00:51:26;1.40;;;1.20;;
11283;SDS011;5698;47.332;11.180;2023-07-30T00:53:55;1.73;;;1.27;;
11283;SDS011;5698;47.332;11.180;2023-07-30T00:56:23;2.73;;;1.50;;
11283;SDS011;5698;47.332;11.180;2023-07-30T00:58:50;1.40;;;1.30;;
11283;SDS011;5698;47.332;11.180;2023-07-30T01:01:20;2.30;;;1.30;;
11283;SDS011;5698;47.332;11.180;2023-07-30T01:03:47;3.80;;;1.57;;
11283;SDS011;5698;47.332;11.180;2023-07-30T01:06:15;1.70;;;1.13;;
11283;SDS011;5698;47.332;11.180;2023-07-30T01:08:42;1.87;;;1.37;;
11283;SDS011;5698;47.332;11.180;2023-07-30T01:11:09;1.50;;;1.23;;
11283;SDS011;5698;47.332;11.180;2023-07-30T01:13:37;1.30;;;1.20;;
11283;SDS011;5698;47.332;11.180;2023-07-30T01:16:05;2.50;;;1.43;;
11283;SDS011;5698;47.332;11.180;2023-07-30T01:18:34;1.40;;;1.10;;
11283;SDS011;5698;47.332;11.180;2023-07-30T01:21:02;1.50;;;1.40;;
11283;SDS011;5698;47.332;11.180;2023-07-30T01:23:29;1.67;;;1.13;;
11283;SDS011;5698;47.332;11.180;2023-07-30T01:25:59;2.70;;;1.67;;
11283;SDS011;5698;47.332;11.180;2023-07-30T01:28:29;2.20;;;1.37;;
11283;SDS011;5698;47.332;11.180;2023-07-30T01:31:03;1.50;;;1.40;;
11283;SDS011;5698;47.332;11.180;2023-07-30T01:33:32;2.57;;;1.37;;
11283;SDS011;5698;47.332;11.180;2023-07-30T01:36:00;1.70;;;1.47;;
11283;SDS011;5698;47.332;11.180;2023-07-30T01:38:29;1.43;;;1.33;;
11283;SDS011;5698;47.332;11.180;2023-07-30T01:40:57;1.57;;;1.30;;
11283;SDS011;5698;47.332;11.180;2023-07-30T01:43:24;2.07;;;1.50;;
11283;SDS011;5698;47.332;11.180;2023-07-30T01:45:51;1.87;;;1.30;;
11283;SDS011;5698;47.332;11.180;2023-07-30T01:48:18;3.10;;;1.40;;
11283;SDS011;5698;47.332;11.180;2023-07-30T01:50:45;1.37;;;1.20;;
11283;SDS011;5698;47.332;11.180;2023-07-30T01:53:15;1.93;;;1.17;;
11283;SDS011;5698;47.332;11.180;2023-07-30T01:55:42;1.80;;;1.30;;
11283;SDS011;5698;47.332;11.180;2023-07-30T01:58:11;1.43;;;1.13;;
11283;SDS011;5698;47.332;11.180;2023-07-30T02:00:38;1.87;;;1.00;;
11283;SDS011;5698;47.332;11.180;2023-07-30T02:03:05;1.33;;;1.17;;
11283;SDS011;5698;47.332;11.180;2023-07-30T02:05:33;1.50;;;1.30;;
11283;SDS011;5698;47.332;11.180;2023-07-30T02:08:00;1.20;;;1.10;;
11283;SDS011;5698;47.332;11.180;2023-07-30T02:10:28;2.27;;;1.13;;
11283;SDS011;5698;47.332;11.180;2023-07-30T02:12:55;1.67;;;1.30;;
11283;SDS011;5698;47.332;11.180;2023-07-30T02:15:22;1.60;;;1.30;;
11283;SDS011;5698;47.332;11.180;2023-07-30T02:17:49;2.00;;;1.00;;
11283;SDS011;5698;47.332;11.180;2023-07-30T02:20:16;1.33;;;1.23;;
11283;SDS011;5698;47.332;11.180;2023-07-30T02:22:43;1.37;;;1.27;;
11283;SDS011;5698;47.332;11.180;2023-07-30T02:25:10;1.07;;;0.97;;
11283;SDS011;5698;47.332;11.180;2023-07-30T02:27:38;1.00;;;1.00;;
11283;SDS011;5698;47.332;11.180;2023-07-30T02:30:06;1.73;;;1.00;;
11283;SDS011;5698;47.332;11.180;2023-07-30T02:32:33;1.30;;;1.17;;
11283;SDS011;5698;47.332;11.180;2023-07-30T02:35:00;1.10;;;1.00;;
11283;SDS011;5698;47.332;11.180;2023-07-30T02:37:27;1.00;;;0.90;;
11283;SDS011;5698;47.332;11.180;2023-07-30T02:39:54;4.00;;;1.20;;
11283;SDS011;5698;47.332;11.180;2023-07-30T02:42:21;7.13;;;1.27;;
11283;SDS011;5698;47.332;11.180;2023-07-30T02:44:49;2.00;;;1.03;;
11283;SDS011;5698;47.332;11.180;2023-07-30T02:47:16;1.33;;;1.20;;
11283;SDS011;5698;47.332;11.180;2023-07-30T02:49:43;10.87;;;1.23;;
11283;SDS011;5698;47.332;11.180;2023-07-30T02:52:10;1.13;;;1.03;;
11283;SDS011;5698;47.332;11.180;2023-07-30T02:54:37;1.50;;;1.00;;
11283;SDS011;5698;47.332;11.180;2023-07-30T02:57:04;1.00;;;1.00;;
11283;SDS011;5698;47.332;11.180;2023-07-30T02:59:31;1.33;;;1.23;;
11283;SDS011;5698;47.332;11.180;2023-07-30T03:02:02;2.10;;;1.07;;
11283;SDS011;5698;47.332;11.180;2023-07-30T03:04:30;1.20;;;1.10;;
11283;SDS011;5698;47.332;11.180;2023-07-30T03:06:57;1.30;;;1.20;;
11283;SDS011;5698;47.332;11.180;2023-07-30T03:09:24;1.57;;;1.17;;
11283;SDS011;5698;47.332;11.180;2023-07-30T03:11:51;1.00;;;0.90;;
11283;SDS011;5698;47.332;11.180;2023-07-30T03:14:18;1.87;;;1.30;;
11283;SDS011;5698;47.332;11.180;2023-07-30T03:16:46;1.63;;;0.90;;
11283;SDS011;5698;47.332;11.180;2023-07-30T03:19:15;1.20;;;0.87;;
11283;SDS011;5698;47.332;11.180;2023-07-30T03:21:42;1.60;;;0.97;;
11283;SDS011;5698;47.332;11.180;2023-07-30T03:24:09;1.13;;;1.00;;
11283;SDS011;5698;47.332;11.180;2023-07-30T03:26:36;1.20;;;1.10;;
11283;SDS011;5698;47.332;11.180;2023-07-30T03:29:03;1.00;;;0.90;;
11283;SDS011;5698;47.332;11.180;2023-07-30T03:31:30;1.40;;;1.07;;
11283;SDS011;5698;47.332;11.180;2023-07-30T03:33:57;1.00;;;1.00;;
11283;SDS011;5698;47.332;11.180;2023-07-30T03:36:26;0.80;;;0.80;;
11283;SDS011;5698;47.332;11.180;2023-07-30T03:38:52;2.80;;;0.93;;
11283;SDS011;5698;47.332;11.180;2023-07-30T03:41:20;1.33;;;0.90;;
11283;SDS011;5698;47.332;11.180;2023-07-30T03:43:47;1.00;;;1.00;;
11283;SDS011;5698;47.332;11.180;2023-07-30T03:46:14;1.00;;;0.90;;
11283;SDS011;5698;47.332;11.180;2023-07-30T03:48:41;1.27;;;1.17;;
11283;SDS011;5698;47.332;11.180;2023-07-30T03:51:08;0.97;;;0.90;;
11283;SDS011;5698;47.332;11.180;2023-07-30T03:53:36;1.17;;;1.10;;
11283;SDS011;5698;47.332;11.180;2023-07-30T03:56:03;1.00;;;1.00;;
11283;SDS011;5698;47.332;11.180;2023-07-30T03:58:30;2.53;;;1.07;;
11283;SDS011;5698;47.332;11.180;2023-07-30T04:00:57;1.67;;;0.87;;
11283;SDS011;5698;47.332;11.180;2023-07-30T04:03:24;1.40;;;0.93;;
11283;SDS011;5698;47.332;11.180;2023-07-30T04:05:51;1.13;;;1.03;;
11283;SDS011;5698;47.332;11.180;2023-07-30T04:08:18;1.17;;;1.00;;
11283;SDS011;5698;47.332;11.180;2023-07-30T04:10:47;1.80;;;1.20;;
11283;SDS011;5698;47.332;11.180;2023-07-30T04:13:14;1.47;;;1.13;;
11283;SDS011;5698;47.332;11.180;2023-07-30T04:15:41;1.10;;;1.00;;
11283;SDS011;5698;47.332;11.180;2023-07-30T04:18:08;1.23;;;1.13;;
11283;SDS011;5698;47.332;11.180;2023-07-30T04:20:35;1.50;;;1.10;;
11283;SDS011;5698;47.332;11.180;2023-07-30T04:23:02;1.60;;;1.10;;
11283;SDS011;5698;47.332;11.180;2023-07-30T04:25:29;1.03;;;0.93;;
11283;SDS011;5698;47.332;11.180;2023-07-30T04:27:57;1.73;;;1.63;;
11283;SDS011;5698;47.332;11.180;2023-07-30T04:30:24;1.10;;;0.97;;
11283;SDS011;5698;47.332;11.180;2023-07-30T04:32:51;2.00;;;1.10;;
11283;SDS011;5698;47.332;11.180;2023-07-30T04:35:18;3.70;;;1.10;;
11283;SDS011;5698;47.332;11.180;2023-07-30T04:37:45;3.93;;;1.17;;
11283;SDS011;5698;47.332;11.180;2023-07-30T04:40:12;1.13;;;1.03;;
11283;SDS011;5698;47.332;11.180;2023-07-30T04:42:39;2.10;;;1.10;;
11283;SDS011;5698;47.332;11.180;2023-07-30T04:45:08;2.43;;;1.30;;
11283;SDS011;5698;47.332;11.180;2023-07-30T04:47:35;1.60;;;1.20;;
11283;SDS011;5698;47.332;11.180;2023-07-30T04:50:02;1.40;;;1.30;;
11283;SDS011;5698;47.332;11.180;2023-07-30T04:52:30;2.33;;;1.50;;
11283;SDS011;5698;47.332;11.180;2023-07-30T04:54:57;1.50;;;1.20;;
11283;SDS011;5698;47.332;11.180;2023-07-30T04:57:24;1.23;;;1.13;;
11283;SDS011;5698;47.332;11.180;2023-07-30T04:59:51;1.50;;;1.40;;
11283;SDS011;5698;47.332;11.180;2023-07-30T05:02:19;1.30;;;1.20;;
11283;SDS011;5698;47.332;11.180;2023-07-30T05:04:46;1.40;;;1.17;;
11283;SDS011;5698;47.332;11.180;2023-07-30T05:07:13;1.27;;;1.00;;
11283;SDS011;5698;47.332;11.180;2023-07-30T05:09:40;1.60;;;1.40;;
11283;SDS011;5698;47.332;11.180;2023-07-30T05:12:07;1.43;;;1.33;;
11283;SDS011;5698;47.332;11.180;2023-07-30T05:14:34;3.83;;;3.47;;
11283;SDS011;5698;47.332;11.180;2023-07-30T05:17:01;3.37;;;2.97;;
11283;SDS011;5698;47.332;11.180;2023-07-30T05:19:30;3.13;;;2.67;;
11283;SDS011;5698;47.332;11.180;2023-07-30T05:21:57;1.87;;;1.77;;
11283;SDS011;5698;47.332;11.180;2023-07-30T05:24:24;2.53;;;2.20;;
11283;SDS011;5698;47.332;11.180;2023-07-30T05:26:51;1.50;;;1.40;;
11283;SDS011;5698;47.332;11.180;2023-07-30T05:29:18;2.30;;;1.90;;
11283;SDS011;5698;47.332;11.180;2023-07-30T05:31:45;2.73;;;1.80;;
11283;SDS011;5698;47.332;11.180;2023-07-30T05:34:12;2.93;;;2.63;;
11283;SDS011;5698;47.332;11.180;2023-07-30T05:36:40;1.37;;;1.23;;
11283;SDS011;5698;47.332;11.180;2023-07-30T05:39:07;1.80;;;1.70;;
11283;SDS011;5698;47.332;11.180;2023-07-30T05:41:34;1.80;;;1.37;;
11283;SDS011;5698;47.332;11.180;2023-07-30T05:44:01;2.50;;;1.50;;
11283;SDS011;5698;47.332;11.180;2023-07-30T05:46:28;1.83;;;1.50;;
11283;SDS011;5698;47.332;11.180;2023-07-30T05:48:55;1.50;;;1.40;;
11283;SDS011;5698;47.332;11.180;2023-07-30T05:51:22;1.40;;;1.30;;
11283;SDS011;5698;47.332;11.180;2023-07-30T05:53:51;1.60;;;1.50;;
11283;SDS011;5698;47.332;11.180;2023-07-30T05:56:18;1.30;;;1.20;;
11283;SDS011;5698;47.332;11.180;2023-07-30T05:58:45;1.50;;;1.40;;
11283;SDS011;5698;47.332;11.180;2023-07-30T06:01:12;1.60;;;1.50;;
11283;SDS011;5698;47.332;11.180;2023-07-30T06:03:39;1.27;;;1.17;;
11283;SDS011;5698;47.332;11.180;2023-07-30T06:06:06;1.23;;;1.00;;
11283;SDS011;5698;47.332;11.180;2023-07-30T06:08:33;1.30;;;1.20;;
11283;SDS011;5698;47.332;11.180;2023-07-30T06:11:01;1.07;;;1.00;;
11283;SDS011;5698;47.332;11.180;2023-07-30T06:13:29;1.10;;;1.00;;
11283;SDS011;5698;47.332;11.180;2023-07-30T06:15:56;1.00;;;1.00;;
11283;SDS011;5698;47.332;11.180;2023-07-30T06:18:23;1.07;;;1.00;;
11283;SDS011;5698;47.332;11.180;2023-07-30T06:20:50;1.20;;;1.10;;
11283;SDS011;5698;47.332;11.180;2023-07-30T06:23:17;1.10;;;1.00;;
11283;SDS011;5698;47.332;11.180;2023-07-30T06:25:44;2.17;;;1.40;;
11283;SDS011;5698;47.332;11.180;2023-07-30T06:28:12;1.10;;;1.10;;
11283;SDS011;5698;47.332;11.180;2023-07-30T06:30:39;1.27;;;1.17;;
11283;SDS011;5698;47.332;11.180;2023-07-30T06:33:06;1.20;;;1.00;;
11283;SDS011;5698;47.332;11.180;2023-07-30T06:35:33;1.20;;;1.10;;
11283;SDS011;5698;47.332;11.180;2023-07-30T06:38:00;1.03;;;0.97;;
11283;SDS011;5698;47.332;11.180;2023-07-30T06:40:27;1.30;;;1.10;;
11283;SDS011;5698;47.332;11.180;2023-07-30T06:42:54;0.97;;;0.90;;
11283;SDS011;5698;47.332;11.180;2023-07-30T06:45:22;1.03;;;1.00;;
11283;SDS011;5698;47.332;11.180;2023-07-30T06:47:49;1.27;;;1.17;;
11283;SDS011;5698;47.332;11.180;2023-07-30T06:50:16;2.20;;;1.30;;
11283;SDS011;5698;47.332;11.180;2023-07-30T06:52:43;1.07;;;0.97;;
11283;SDS011;5698;47.332;11.180;2023-07-30T06:55:10;1.40;;;1.27;;
11283;SDS011;5698;47.332;11.180;2023-07-30T06:57:37;0.90;;;0.90;;
11283;SDS011;5698;47.332;11.180;2023-07-30T07:00:04;1.13;;;1.00;;
11283;SDS011;5698;47.332;11.180;2023-07-30T07:02:34;2.30;;;1.50;;
11283;SDS011;5698;47.332;11.180;2023-07-30T07:05:01;1.50;;;1.40;;
11283;SDS011;5698;47.332;11.180;2023-07-30T07:07:28;1.70;;;1.60;;
11283;SDS011;5698;47.332;11.180;2023-07-30T07:09:56;1.53;;;1.43;;
11283;SDS011;5698;47.332;11.180;2023-07-30T07:12:23;1.90;;;1.80;;
11283;SDS011;5698;47.332;11.180;2023-07-30T07:14:50;3.20;;;1.67;;
11283;SDS011;5698;47.332;11.180;2023-07-30T07:17:16;2.23;;;1.57;;
11283;SDS011;5698;47.332;11.180;2023-07-30T07:19:45;1.43;;;1.33;;
11283;SDS011;5698;47.332;11.180;2023-07-30T07:22:12;2.00;;;1.80;;
11283;SDS011;5698;47.332;11.180;2023-07-30T07:24:39;2.10;;;1.90;;
11283;SDS011;5698;47.332;11.180;2023-07-30T07:27:06;1.87;;;1.70;;
11283;SDS011;5698;47.332;11.180;2023-07-30T07:29:33;1.50;;;1.40;;
11283;SDS011;5698;47.332;11.180;2023-07-30T07:32:00;2.40;;;1.40;;
11283;SDS011;5698;47.332;11.180;2023-07-30T07:34:27;2.03;;;1.20;;
11283;SDS011;5698;47.332;11.180;2023-07-30T07:36:55;2.53;;;2.33;;
11283;SDS011;5698;47.332;11.180;2023-07-30T07:39:22;2.47;;;1.83;;
11283;SDS011;5698;47.332;11.180;2023-07-30T07:41:49;2.70;;;2.43;;
11283;SDS011;5698;47.332;11.180;2023-07-30T07:44:16;2.00;;;1.90;;
11283;SDS011;5698;47.332;11.180;2023-07-30T07:46:43;1.40;;;1.30;;
11283;SDS011;5698;47.332;11.180;2023-07-30T07:49:10;2.30;;;1.00;;
11283;SDS011;5698;47.332;11.180;2023-07-30T07:51:37;1.20;;;1.10;;
11283;SDS011;5698;47.332;11.180;2023-07-30T07:54:05;2.13;;;1.10;;
11283;SDS011;5698;47.332;11.180;2023-07-30T07:56:32;1.00;;;0.90;;
11283;SDS011;5698;47.332;11.180;2023-07-30T07:58:59;0.90;;;0.80;;
11283;SDS011;5698;47.332;11.180;2023-07-30T08:01:26;1.10;;;1.00;;
11283;SDS011;5698;47.332;11.180;2023-07-30T08:03:53;1.00;;;0.90;;
11283;SDS011;5698;47.332;11.180;2023-07-30T08:06:21;2.07;;;1.53;;
11283;SDS011;5698;47.332;11.180;2023-07-30T08:08:48;1.70;;;1.40;;
11283;SDS011;5698;47.332;11.180;2023-07-30T08:11:16;1.77;;;1.20;;
11283;SDS011;5698;47.332;11.180;2023-07-30T08:13:43;2.17;;;0.90;;
11283;SDS011;5698;47.332;11.180;2023-07-30T08:16:10;1.07;;;0.97;;
11283;SDS011;5698;47.332;11.180;2023-07-30T08:18:37;1.73;;;0.70;;
11283;SDS011;5698;47.332;11.180;2023-07-30T08:21:04;1.00;;;0.90;;
11283;SDS011;5698;47.332;11.180;2023-07-30T08:23:31;1.23;;;0.80;;
11283;SDS011;5698;47.332;11.180;2023-07-30T08:25:58;1.57;;;1.47;;
11283;SDS011;5698;47.332;11.180;2023-07-30T08:28:27;3.10;;;2.13;;
11283;SDS011;5698;47.332;11.180;2023-07-30T08:30:59;1.70;;;1.30;;
11283;SDS011;5698;47.332;11.180;2023-07-30T08:33:27;1.37;;;1.10;;
11283;SDS011;5698;47.332;11.180;2023-07-30T08:35:54;1.50;;;1.20;;
11283;SDS011;5698;47.332;11.180;2023-07-30T08:38:22;2.77;;;2.57;;
11283;SDS011;5698;47.332;11.180;2023-07-30T08:40:48;1.70;;;1.60;;
11283;SDS011;5698;47.332;11.180;2023-07-30T08:43:16;2.00;;;1.90;;
11283;SDS011;5698;47.332;11.180;2023-07-30T08:45:45;3.37;;;3.17;;
11283;SDS011;5698;47.332;11.180;2023-07-30T08:48:12;2.60;;;2.40;;
11283;SDS011;5698;47.332;11.180;2023-07-30T08:50:40;2.50;;;1.70;;
11283;SDS011;5698;47.332;11.180;2023-07-30T08:53:07;1.77;;;1.67;;
11283;SDS011;5698;47.332;11.180;2023-07-30T08:55:34;1.37;;;1.20;;
11283;SDS011;5698;47.332;11.180;2023-07-30T08:58:02;1.57;;;1.30;;
11283;SDS011;5698;47.332;11.180;2023-07-30T09:00:34;0.90;;;0.90;;
11283;SDS011;5698;47.332;11.180;2023-07-30T09:03:04;1.10;;;0.80;;
11283;SDS011;5698;47.332;11.180;2023-07-30T09:05:32;1.00;;;1.00;;
11283;SDS011;5698;47.332;11.180;2023-07-30T09:07:59;1.10;;;1.00;;
11283;SDS011;5698;47.332;11.180;2023-07-30T09:10:26;1.37;;;1.00;;
11283;SDS011;5698;47.332;11.180;2023-07-30T09:12:54;0.70;;;0.70;;
11283;SDS011;5698;47.332;11.180;2023-07-30T09:15:28;1.37;;;1.10;;
11283;SDS011;5698;47.332;11.180;2023-07-30T09:17:57;1.90;;;1.70;;
11283;SDS011;5698;47.332;11.180;2023-07-30T09:20:26;1.23;;;1.13;;
11283;SDS011;5698;47.332;11.180;2023-07-30T09:22:55;1.50;;;1.20;;
11283;SDS011;5698;47.332;11.180;2023-07-30T09:25:23;1.10;;;0.93;;
11283;SDS011;5698;47.332;11.180;2023-07-30T09:27:50;1.00;;;1.00;;
11283;SDS011;5698;47.332;11.180;2023-07-30T09:30:21;1.17;;;0.97;;
11283;SDS011;5698;47.332;11.180;2023-07-30T09:32:50;0.80;;;0.80;;
11283;SDS011;5698;47.332;11.180;2023-07-30T09:35:19;0.77;;;0.77;;
11283;SDS011;5698;47.332;11.180;2023-07-30T09:37:48;0.97;;;0.93;;
11283;SDS011;5698;47.332;11.180;2023-07-30T09:40:15;0.80;;;0.80;;
11283;SDS011;5698;47.332;11.180;2023-07-30T09:42:44;1.37;;;0.83;;
11283;SDS011;5698;47.332;11.180;2023-07-30T09:45:20;1.17;;;0.97;;
11283;SDS011;5698;47.332;11.180;2023-07-30T09:47:48;0.90;;;0.77;;
11283;SDS011;5698;47.332;11.180;2023-07-30T09:50:16;0.93;;;0.90;;
11283;SDS011;5698;47.332;11.180;2023-07-30T09:52:43;0.80;;;0.80;;
11283;SDS011;5698;47.332;11.180;2023-07-30T09:55:12;0.80;;;0.80;;
11283;SDS011;5698;47.332;11.180;2023-07-30T09:57:39;1.67;;;0.93;;
11283;SDS011;5698;47.332;11.180;2023-07-30T10:00:06;1.63;;;0.90;;
11283;SDS011;5698;47.332;11.180;2023-07-30T10:02:37;1.13;;;0.73;;
11283;SDS011;5698;47.332;11.180;2023-07-30T10:05:07;0.80;;;0.80;;
11283;SDS011;5698;47.332;11.180;2023-07-30T10:07:37;0.90;;;0.80;;
11283;SDS011;5698;47.332;11.180;2023-07-30T10:10:07;1.20;;;0.90;;
11283;SDS011;5698;47.332;11.180;2023-07-30T10:12:36;0.97;;;0.90;;
11283;SDS011;5698;47.332;11.180;2023-07-30T10:15:06;0.83;;;0.70;;
11283;SDS011;5698;47.332;11.180;2023-07-30T10:17:33;0.87;;;0.67;;
11283;SDS011;5698;47.332;11.180;2023-07-30T10:22:46;0.83;;;0.80;;
11283;SDS011;5698;47.332;11.180;2023-07-30T10:25:13;1.03;;;0.90;;
11283;SDS011;5698;47.332;11.180;2023-07-30T10:27:41;1.33;;;0.83;;
11283;SDS011;5698;47.332;11.180;2023-07-30T10:30:11;0.80;;;0.80;;
11283;SDS011;5698;47.332;11.180;2023-07-30T10:32:40;1.63;;;0.70;;
11283;SDS011;5698;47.332;11.180;2023-07-30T10:35:07;0.73;;;0.50;;
11283;SDS011;5698;47.332;11.180;2023-07-30T10:37:34;0.70;;;0.70;;
11283;SDS011;5698;47.332;11.180;2023-07-30T10:40:15;0.93;;;0.60;;
11283;SDS011;5698;47.332;11.180;2023-07-30T10:42:44;0.97;;;0.93;;
11283;SDS011;5698;47.332;11.180;2023-07-30T10:45:11;0.60;;;0.60;;
11283;SDS011;5698;47.332;11.180;2023-07-30T10:47:40;0.97;;;0.80;;
11283;SDS011;5698;47.332;11.180;2023-07-30T10:50:08;0.80;;;0.80;;
11283;SDS011;5698;47.332;11.180;2023-07-30T10:52:36;0.50;;;0.50;;
11283;SDS011;5698;47.332;11.180;2023-07-30T10:55:04;0.60;;;0.60;;
11283;SDS011;5698;47.332;11.180;2023-07-30T10:57:31;0.97;;;0.70;;
11283;SDS011;5698;47.332;11.180;2023-07-30T11:00:00;1.53;;;0.70;;
11283;SDS011;5698;47.332;11.180;2023-07-30T11:02:27;1.90;;;0.77;;
11283;SDS011;5698;47.332;11.180;2023-07-30T11:04:55;0.53;;;0.53;;
11283;SDS011;5698;47.332;11.180;2023-07-30T11:07:22;0.60;;;0.60;;
11283;SDS011;5698;47.332;11.180;2023-07-30T11:09:57;0.70;;;0.70;;
11283;SDS011;5698;47.332;11.180;2023-07-30T11:12:26;0.77;;;0.77;;
11283;SDS011;5698;47.332;11.180;2023-07-30T11:15:01;0.70;;;0.70;;
11283;SDS011;5698;47.332;11.180;2023-07-30T11:17:28;0.60;;;0.60;;
11283;SDS011;5698;47.332;11.180;2023-07-30T11:19:55;0.67;;;0.67;;
11283;SDS011;5698;47.332;11.180;2023-07-30T11:22:28;0.60;;;0.60;;
11283;SDS011;5698;47.332;11.180;2023-07-30T11:24:56;1.50;;;0.60;;
11283;SDS011;5698;47.332;11.180;2023-07-30T11:27:23;0.70;;;0.70;;
11283;SDS011;5698;47.332;11.180;2023-07-30T11:29:54;0.57;;;0.57;;
11283;SDS011;5698;47.332;11.180;2023-07-30T11:32:23;0.60;;;0.60;;
11283;SDS011;5698;47.332;11.180;2023-07-30T11:34:51;0.60;;;0.60;;
11283;SDS011;5698;47.332;11.180;2023-07-30T11:37:18;0.70;;;0.50;;
11283;SDS011;5698;47.332;11.180;2023-07-30T11:39:46;0.73;;;0.73;;
11283;SDS011;5698;47.332;11.180;2023-07-30T11:42:13;0.70;;;0.67;;
11283;SDS011;5698;47.332;11.180;2023-07-30T11:44:41;1.03;;;0.80;;
11283;SDS011;5698;47.332;11.180;2023-07-30T11:47:08;0.90;;;0.67;;
11283;SDS011;5698;47.332;11.180;2023-07-30T11:49:36;0.60;;;0.60;;
11283;SDS011;5698;47.332;11.180;2023-07-30T11:52:04;0.70;;;0.70;;
11283;SDS011;5698;47.332;11.180;2023-07-30T11:54:32;1.10;;;0.70;;
11283;SDS011;5698;47.332;11.180;2023-07-30T11:56:59;0.97;;;0.50;;
11283;SDS011;5698;47.332;11.180;2023-07-30T11:59:26;0.67;;;0.67;;
11283;SDS011;5698;47.332;11.180;2023-07-30T12:01:53;0.60;;;0.60;;
11283;SDS011;5698;47.332;11.180;2023-07-30T12:04:20;2.43;;;0.70;;
11283;SDS011;5698;47.332;11.180;2023-07-30T12:06:51;1.10;;;1.00;;
11283;SDS011;5698;47.332;11.180;2023-07-30T12:09:20;1.10;;;0.90;;
11283;SDS011;5698;47.332;11.180;2023-07-30T12:11:49;0.80;;;0.80;;
11283;SDS011;5698;47.332;11.180;2023-07-30T12:14:20;0.83;;;0.83;;
11283;SDS011;5698;47.332;11.180;2023-07-30T12:16:50;0.97;;;0.70;;
11283;SDS011;5698;47.332;11.180;2023-07-30T12:19:17;1.43;;;1.00;;
11283;SDS011;5698;47.332;11.180;2023-07-30T12:21:44;0.93;;;0.70;;
11283;SDS011;5698;47.332;11.180;2023-07-30T12:24:12;0.70;;;0.70;;
11283;SDS011;5698;47.332;11.180;2023-07-30T12:26:39;0.93;;;0.67;;
11283;SDS011;5698;47.332;11.180;2023-07-30T12:29:07;0.70;;;0.70;;
11283;SDS011;5698;47.332;11.180;2023-07-30T12:31:34;1.93;;;0.80;;
11283;SDS011;5698;47.332;11.180;2023-07-30T12:34:01;0.70;;;0.70;;
11283;SDS011;5698;47.332;11.180;2023-07-30T12:36:28;0.70;;;0.70;;
11283;SDS011;5698;47.332;11.180;2023-07-30T12:38:55;0.80;;;0.80;;
11283;SDS011;5698;47.332;11.180;2023-07-30T12:41:23;0.77;;;0.77;;
11283;SDS011;5698;47.332;11.180;2023-07-30T12:43:51;1.00;;;0.70;;
11283;SDS011;5698;47.332;11.180;2023-07-30T12:46:19;0.90;;;0.80;;
11283;SDS011;5698;47.332;11.180;2023-07-30T12:48:46;0.87;;;0.80;;
11283;SDS011;5698;47.332;11.180;2023-07-30T12:51:13;1.03;;;0.67;;
11283;SDS011;5698;47.332;11.180;2023-07-30T12:53:40;0.87;;;0.70;;
11283;SDS011;5698;47.332;11.180;2023-07-30T12:56:07;0.77;;;0.73;;
11283;SDS011;5698;47.332;11.180;2023-07-30T12:58:35;0.90;;;0.90;;
11283;SDS011;5698;47.332;11.180;2023-07-30T13:01:02;0.77;;;0.77;;
11283;SDS011;5698;47.332;11.180;2023-07-30T13:03:30;1.53;;;0.77;;
11283;SDS011;5698;47.332;11.180;2023-07-30T13:05:56;1.30;;;0.93;;
11283;SDS011;5698;47.332;11.180;2023-07-30T13:08:23;1.43;;;1.33;;
11283;SDS011;5698;47.332;11.180;2023-07-30T13:10:50;1.20;;;1.07;;
11283;SDS011;5698;47.332;11.180;2023-07-30T13:13:17;1.47;;;1.30;;
11283;SDS011;5698;47.332;11.180;2023-07-30T13:15:46;2.80;;;1.60;;
11283;SDS011;5698;47.332;11.180;2023-07-30T13:18:13;2.13;;;1.93;;
11283;SDS011;5698;47.332;11.180;2023-07-30T13:20:40;2.13;;;1.60;;
11283;SDS011;5698;47.332;11.180;2023-07-30T13:23:07;3.60;;;2.23;;
11283;SDS011;5698;47.332;11.180;2023-07-30T13:25:33;3.80;;;3.40;;
11283;SDS011;5698;47.332;11.180;2023-07-30T13:28:00;1.27;;;1.17;;
11283;SDS011;5698;47.332;11.180;2023-07-30T13:30:27;1.73;;;1.10;;
11283;SDS011;5698;47.332;11.180;2023-07-30T13:32:56;1.10;;;1.00;;
11283;SDS011;5698;47.332;11.180;2023-07-30T13:35:23;1.67;;;1.20;;
11283;SDS011;5698;47.332;11.180;2023-07-30T13:37:50;1.00;;;1.00;;
11283;SDS011;5698;47.332;11.180;2023-07-30T13:40:17;1.47;;;1.37;;
11283;SDS011;5698;47.332;11.180;2023-07-30T13:42:44;2.10;;;1.23;;
11283;SDS011;5698;47.332;11.180;2023-07-30T13:45:11;1.40;;;1.30;;
11283;SDS011;5698;47.332;11.180;2023-07-30T13:47:38;0.80;;;0.77;;
11283;SDS011;5698;47.332;11.180;2023-07-30T13:50:08;1.57;;;0.70;;
11283;SDS011;5698;47.332;11.180;2023-07-30T13:52:36;2.03;;;0.60;;
11283;SDS011;5698;47.332;11.180;2023-07-30T13:55:03;0.73;;;0.73;;
11283;SDS011;5698;47.332;11.180;2023-07-30T13:57:30;1.10;;;1.00;;
11283;SDS011;5698;47.332;11.180;2023-07-30T13:59:57;0.97;;;0.90;;
11283;SDS011;5698;47.332;11.180;2023-07-30T14:02:24;0.80;;;0.80;;
11283;SDS011;5698;47.332;11.180;2023-07-30T14:04:51;2.17;;;0.70;;
11283;SDS011;5698;47.332;11.180;2023-07-30T14:07:19;0.83;;;0.80;;
11283;SDS011;5698;47.332;11.180;2023-07-30T14:09:46;0.93;;;0.83;;
11283;SDS011;5698;47.332;11.180;2023-07-30T14:12:13;1.00;;;1.00;;
11283;SDS011;5698;47.332;11.180;2023-07-30T14:14:40;3.17;;;2.97;;
11283;SDS011;5698;47.332;11.180;2023-07-30T14:17:07;1.07;;;0.97;;
11283;SDS011;5698;47.332;11.180;2023-07-30T14:19:34;0.53;;;0.53;;
11283;SDS011;5698;47.332;11.180;2023-07-30T14:22:01;0.53;;;0.50;;
11283;SDS011;5698;47.332;11.180;2023-07-30T14:24:29;1.80;;;1.00;;
11283;SDS011;5698;47.332;11.180;2023-07-30T14:26:56;1.17;;;1.07;;
11283;SDS011;5698;47.332;11.180;2023-07-30T14:29:23;0.90;;;0.90;;
11283;SDS011;5698;47.332;11.180;2023-07-30T14:31:50;0.97;;;0.87;;
11283;SDS011;5698;47.332;11.180;2023-07-30T14:34:17;1.53;;;1.20;;
11283;SDS011;5698;47.332;11.180;2023-07-30T14:36:44;1.73;;;1.10;;
11283;SDS011;5698;47.332;11.180;2023-07-30T14:39:11;0.80;;;0.80;;
11283;SDS011;5698;47.332;11.180;2023-07-30T14:41:39;2.27;;;1.20;;
11283;SDS011;5698;47.332;11.180;2023-07-30T14:44:06;1.20;;;1.10;;
11283;SDS011;5698;47.332;11.180;2023-07-30T14:46:33;1.23;;;1.00;;
11283;SDS011;5698;47.332;11.180;2023-07-30T14:49:00;1.33;;;1.00;;
11283;SDS011;5698;47.332;11.180;2023-07-30T14:51:28;4.70;;;1.60;;
11283;SDS011;5698;47.332;11.180;2023-07-30T14:53:55;1.23;;;0.83;;